Time;durP1;ratioP1;P1;durP2;ratioP2;P2;SDS_P1;SDS_P2;PMS_P1;PMS_P2;Temp;Humidity;BMP_temperature;BMP_pressure;BME280_temperature;BME280_humidity;BME280_pressure;Samples;Min_cycle;Max_cycle;Signal;HPM_P1;HPM_P2
2020/12/24 00:01:55;;;;;;;15.87;15.07;;;12.00;85.50;;;;;;5033234;28;20460;-79
2020/12/24 00:04:21;;;;;;;15.83;15.07;;;11.90;84.30;;;;;;5033185;28;20513;-78
2020/12/24 00:06:47;;;;;;;16.40;15.70;;;11.80;84.00;;;;;;5033196;28;20479;-79
2020/12/24 00:09:14;;;;;;;17.10;16.40;;;11.90;82.60;;;;;;5034235;28;20521;-79
2020/12/24 00:11:40;;;;;;;17.80;17.00;;;11.90;80.20;;;;;;5033036;28;20865;-79
2020/12/24 00:14:07;;;;;;;18.10;17.00;;;11.90;79.10;;;;;;5032954;28;20457;-79
2020/12/24 00:16:34;;;;;;;17.67;16.87;;;11.90;79.60;;;;;;5032854;28;20471;-79
2020/12/24 00:19:00;;;;;;;17.90;17.10;;;11.80;78.60;;;;;;5032941;28;20491;-79
2020/12/24 00:21:26;;;;;;;18.40;17.50;;;11.80;78.60;;;;;;5051604;28;20455;-79
2020/12/24 00:23:52;;;;;;;19.00;18.10;;;11.80;78.20;;;;;;5051921;28;20812;-79
2020/12/24 00:26:19;;;;;;;19.47;18.57;;;11.80;77.20;;;;;;5052363;28;20485;-79
2020/12/24 00:28:45;;;;;;;19.13;18.30;;;11.80;75.90;;;;;;5052797;28;20447;-79
2020/12/24 00:31:12;;;;;;;18.70;17.90;;;11.80;75.30;;;;;;5044685;28;20454;-79
2020/12/24 00:33:39;;;;;;;19.50;18.40;;;11.80;75.50;;;;;;5043423;28;20451;-78
2020/12/24 00:36:05;;;;;;;20.00;19.00;;;11.80;75.40;;;;;;5045015;28;20531;-79
2020/12/24 00:38:31;;;;;;;20.30;19.30;;;11.80;75.20;;;;;;5039570;28;20475;-79
2020/12/24 00:40:58;;;;;;;19.40;18.50;;;11.80;75.10;;;;;;5039660;28;20462;-79
2020/12/24 00:43:24;;;;;;;19.50;18.60;;;11.80;75.10;;;;;;5052482;28;20455;-79
2020/12/24 00:45:50;;;;;;;19.90;18.90;;;11.80;75.30;;;;;;5052301;28;20553;-79
2020/12/24 00:48:17;;;;;;;20.10;19.10;;;11.80;75.40;;;;;;5052457;28;20869;-79
2020/12/24 00:50:44;;;;;;;19.80;18.70;;;11.80;75.70;;;;;;5048636;28;20453;-79
2020/12/24 00:53:10;;;;;;;19.70;18.77;;;11.70;76.20;;;;;;5040487;28;20898;-79
2020/12/24 00:55:37;;;;;;;19.30;18.40;;;11.80;76.00;;;;;;5052117;28;20980;-79
2020/12/24 00:58:03;;;;;;;19.40;18.40;;;11.70;76.70;;;;;;5052445;28;20532;-79
2020/12/24 01:00:29;;;;;;;18.97;18.00;;;11.80;77.00;;;;;;5050548;28;20988;-79
2020/12/24 01:02:56;;;;;;;19.23;18.37;;;11.80;76.80;;;;;;5032424;28;20518;-79
2020/12/24 01:05:23;;;;;;;19.20;18.20;;;11.80;76.80;;;;;;5032311;28;20959;-79
2020/12/24 01:07:49;;;;;;;19.00;18.10;;;11.80;76.90;;;;;;5032218;28;20801;-79
2020/12/24 01:10:16;;;;;;;19.10;18.20;;;11.60;78.10;;;;;;5032316;28;20805;-79
2020/12/24 01:12:42;;;;;;;19.17;18.20;;;11.70;78.30;;;;;;5033015;28;20462;-79
2020/12/24 01:15:10;;;;;;;18.90;18.00;;;11.70;78.20;;;;;;5035125;28;20812;-78
2020/12/24 01:17:37;;;;;;;18.97;17.97;;;11.70;78.80;;;;;;5051795;28;21019;-78
2020/12/24 01:20:05;;;;;;;19.20;18.30;;;11.50;80.00;;;;;;5052304;28;20463;-78
2020/12/24 01:22:33;;;;;;;17.83;17.03;;;11.50;81.00;;;;;;5052538;28;20451;-78
2020/12/24 01:24:59;;;;;;;17.93;17.13;;;11.30;81.90;;;;;;5048328;28;20479;-78
2020/12/24 01:27:26;;;;;;;18.00;17.10;;;11.30;82.30;;;;;;5031911;28;20521;-78
2020/12/24 01:29:52;;;;;;;18.00;17.10;;;11.20;83.20;;;;;;5032319;28;20452;-78
2020/12/24 01:32:19;;;;;;;17.50;16.73;;;11.10;84.20;;;;;;5047835;28;20447;-78
2020/12/24 01:34:46;;;;;;;17.63;16.83;;;11.20;83.80;;;;;;5036739;28;20456;-78
2020/12/24 01:37:12;;;;;;;17.30;16.50;;;11.10;84.00;;;;;;5041881;28;20471;-78
2020/12/24 01:39:39;;;;;;;17.23;16.30;;;11.10;84.80;;;;;;5055594;28;20463;-78
2020/12/24 01:42:06;;;;;;;17.20;16.40;;;11.10;85.10;;;;;;5056104;28;20801;-78
2020/12/24 01:44:32;;;;;;;16.67;15.97;;;11.00;85.20;;;;;;5047274;28;20444;-78
2020/12/24 01:46:59;;;;;;;16.70;15.80;;;11.00;85.70;;;;;;5043845;28;20476;-78
2020/12/24 01:49:25;;;;;;;16.70;15.70;;;11.00;85.90;;;;;;5036071;28;20470;-78
2020/12/24 01:51:53;;;;;;;15.97;15.20;;;11.10;86.10;;;;;;5035701;28;20957;-78
2020/12/24 01:54:21;;;;;;;15.80;15.10;;;11.10;85.90;;;;;;5049828;28;20459;-78
2020/12/24 01:56:49;;;;;;;15.93;15.13;;;11.10;85.90;;;;;;5035365;28;20482;-78
2020/12/24 01:59:17;;;;;;;15.77;15.00;;;11.10;86.20;;;;;;5035795;28;20491;-79
2020/12/24 02:01:47;;;;;;;15.33;14.50;;;11.00;86.80;;;;;;5047536;28;20543;-78
2020/12/24 02:04:13;;;;;;;15.17;14.47;;;11.00;87.40;;;;;;5035502;28;20452;-78
2020/12/24 02:06:41;;;;;;;15.40;14.70;;;10.90;87.80;;;;;;5035184;28;20483;-78
2020/12/24 02:09:07;;;;;;;15.10;14.40;;;10.90;87.80;;;;;;5035124;28;20463;-78
2020/12/24 02:11:34;;;;;;;15.30;14.40;;;10.90;87.80;;;;;;5015540;28;20455;-78
2020/12/24 02:14:01;;;;;;;15.03;14.43;;;10.90;87.10;;;;;;5015598;28;20450;-78
2020/12/24 02:16:28;;;;;;;16.13;15.33;;;10.90;87.00;;;;;;5034544;28;20487;-78
2020/12/24 02:18:54;;;;;;;15.90;15.10;;;11.00;84.30;;;;;;5035125;28;20483;-78
2020/12/24 02:21:21;;;;;;;15.50;14.90;;;11.00;84.70;;;;;;5034994;28;20819;-78
2020/12/24 02:23:48;;;;;;;17.80;16.90;;;10.90;84.40;;;;;;5035097;28;20452;-78
2020/12/24 02:26:14;;;;;;;17.77;16.97;;;10.80;83.30;;;;;;5034833;28;20619;-78
2020/12/24 02:28:40;;;;;;;18.40;17.60;;;10.80;81.30;;;;;;5037153;28;20941;-78
2020/12/24 02:31:09;;;;;;;18.50;17.60;;;10.80;79.60;;;;;;5056698;28;20451;-78
2020/12/24 02:33:36;;;;;;;18.83;17.93;;;10.90;79.10;;;;;;5054874;28;20945;-78
2020/12/24 02:36:02;;;;;;;19.20;18.30;;;10.80;78.50;;;;;;5054516;28;20478;-78
2020/12/24 02:38:30;;;;;;;19.07;18.03;;;10.80;77.30;;;;;;5054571;28;20559;-78
2020/12/24 02:40:56;;;;;;;19.30;18.20;;;10.70;77.70;;;;;;5052848;28;20447;-78
2020/12/24 02:43:22;;;;;;;19.30;18.30;;;10.70;77.40;;;;;;5054259;28;20520;-78
2020/12/24 02:45:49;;;;;;;18.60;17.70;;;10.60;77.60;;;;;;5053105;28;20988;-78
2020/12/24 02:48:15;;;;;;;18.73;17.83;;;10.50;78.40;;;;;;5054637;28;20451;-78
2020/12/24 02:50:42;;;;;;;19.50;18.50;;;10.50;78.00;;;;;;5044513;28;20448;-78
2020/12/24 02:53:08;;;;;;;19.30;18.40;;;10.50;78.40;;;;;;5034468;28;20447;-78
2020/12/24 02:55:35;;;;;;;18.90;18.00;;;10.40;78.10;;;;;;5045310;28;20525;-79
2020/12/24 02:58:01;;;;;;;18.60;17.70;;;10.40;79.00;;;;;;5054323;28;20844;-78
2020/12/24 03:00:28;;;;;;;18.93;17.80;;;10.30;79.90;;;;;;5052514;28;20460;-79
2020/12/24 03:02:54;;;;;;;18.50;17.60;;;10.30;80.40;;;;;;5054218;28;20454;-79
2020/12/24 03:05:20;;;;;;;19.07;18.17;;;10.40;80.50;;;;;;5039722;28;20457;-79
2020/12/24 03:07:49;;;;;;;18.90;17.90;;;10.50;79.40;;;;;;5034239;28;20501;-78
2020/12/24 03:10:15;;;;;;;19.20;18.30;;;10.40;79.50;;;;;;5036725;28;20457;-79
2020/12/24 03:12:43;;;;;;;19.20;18.30;;;10.40;79.40;;;;;;5049011;28;20451;-79
2020/12/24 03:15:11;;;;;;;19.50;18.47;;;10.40;78.70;;;;;;5033856;28;20767;-79
2020/12/24 03:17:38;;;;;;;19.30;18.30;;;10.40;78.60;;;;;;5033920;28;20459;-78
2020/12/24 03:20:07;;;;;;;19.17;18.27;;;10.30;79.30;;;;;;5039645;28;20454;-78
2020/12/24 03:22:33;;;;;;;18.57;17.77;;;10.40;79.20;;;;;;5054058;28;20447;-78
2020/12/24 03:25:00;;;;;;;19.00;18.10;;;10.30;79.50;;;;;;5048659;28;20832;-78
2020/12/24 03:27:26;;;;;;;19.20;18.20;;;10.30;79.30;;;;;;5033922;28;20475;-79
2020/12/24 03:29:53;;;;;;;19.57;18.67;;;10.30;79.50;;;;;;5037647;28;20448;-78
2020/12/24 03:32:20;;;;;;;18.27;17.47;;;10.30;79.40;;;;;;5053763;28;20488;-78
2020/12/24 03:34:46;;;;;;;19.10;18.20;;;10.20;79.60;;;;;;5051104;28;20444;-79
2020/12/24 03:37:13;;;;;;;18.10;17.20;;;10.10;80.40;;;;;;5033724;28;20468;-79
2020/12/24 03:39:39;;;;;;;18.50;17.50;;;10.10;80.50;;;;;;5035488;28;20487;-78
2020/12/24 03:42:05;;;;;;;18.57;17.67;;;10.10;80.60;;;;;;5054917;28;20457;-78
2020/12/24 03:44:32;;;;;;;19.20;18.30;;;10.00;80.80;;;;;;5057356;28;20908;-79
2020/12/24 03:46:59;;;;;;;19.40;18.40;;;9.90;81.20;;;;;;5050944;28;20579;-79
2020/12/24 03:49:25;;;;;;;18.40;17.40;;;9.90;81.40;;;;;;5052854;28;20447;-78
2020/12/24 03:51:51;;;;;;;18.00;17.10;;;9.90;81.70;;;;;;5053422;28;20971;-78
2020/12/24 03:54:18;;;;;;;17.93;17.07;;;9.90;82.00;;;;;;5053298;28;20538;-78
2020/12/24 03:56:44;;;;;;;18.20;17.40;;;9.80;82.50;;;;;;5052699;28;20549;-79
2020/12/24 03:59:10;;;;;;;18.20;17.20;;;9.80;82.70;;;;;;5033063;28;20484;-78
2020/12/24 04:01:37;;;;;;;17.40;16.60;;;9.80;82.80;;;;;;5033374;28;20232;-78
2020/12/24 04:04:04;;;;;;;17.38;16.48;;;9.80;83.00;;;;;;5033168;28;20942;-78
2020/12/24 04:06:30;;;;;;;16.60;15.80;;;9.70;83.20;;;;;;5033099;28;20244;-79
2020/12/24 04:08:57;;;;;;;17.00;16.10;;;9.70;83.10;;;;;;5036824;28;20196;-78
2020/12/24 04:11:23;;;;;;;17.38;16.48;;;9.60;83.10;;;;;;5052982;28;20204;-78
2020/12/24 04:13:49;;;;;;;17.63;16.67;;;9.60;83.30;;;;;;5052991;28;20196;-78
2020/12/24 04:16:19;;;;;;;17.15;16.35;;;9.50;83.10;;;;;;5052832;28;20217;-78
2020/12/24 04:18:45;;;;;;;17.10;16.30;;;9.60;83.40;;;;;;5050733;28;20258;-79
2020/12/24 04:21:12;;;;;;;17.08;16.15;;;9.60;83.20;;;;;;5033334;28;20193;-78
2020/12/24 04:23:39;;;;;;;16.60;15.80;;;9.60;82.90;;;;;;5036384;28;20264;-78
2020/12/24 04:26:05;;;;;;;16.38;15.65;;;9.50;82.70;;;;;;5039977;28;20218;-79
2020/12/24 04:28:31;;;;;;;17.50;16.48;;;9.50;82.70;;;;;;5032837;28;20246;-79
2020/12/24 04:30:58;;;;;;;18.58;17.15;;;9.60;82.70;;;;;;5048612;28;20196;-78
2020/12/24 04:33:24;;;;;;;17.80;17.00;;;9.50;82.60;;;;;;5052593;28;20547;-78
2020/12/24 04:35:54;;;;;;;17.70;16.90;;;9.60;83.10;;;;;;5052599;28;20642;-79
2020/12/24 04:38:21;;;;;;;16.20;15.40;;;9.60;83.10;;;;;;5052426;28;20243;-79
2020/12/24 04:40:49;;;;;;;16.10;15.40;;;9.60;83.20;;;;;;5033988;28;20204;-78
2020/12/24 04:43:17;;;;;;;17.23;16.27;;;9.70;83.40;;;;;;5032843;28;20193;-78
2020/12/24 04:45:43;;;;;;;15.95;15.05;;;9.60;83.30;;;;;;5032085;28;20229;-79
2020/12/24 04:48:10;;;;;;;17.25;16.45;;;9.70;83.60;;;;;;5032634;28;20266;-78
2020/12/24 04:50:38;;;;;;;16.63;15.73;;;9.70;83.50;;;;;;5052466;28;20192;-78
2020/12/24 04:53:07;;;;;;;15.93;15.13;;;9.60;83.70;;;;;;5062158;28;20208;-78
2020/12/24 04:55:34;;;;;;;16.45;15.65;;;9.60;83.40;;;;;;5059638;28;20216;-79
2020/12/24 04:58:00;;;;;;;17.15;16.10;;;9.70;83.60;;;;;;5052476;28;20281;-78
2020/12/24 05:00:27;;;;;;;17.23;16.42;;;9.70;83.60;;;;;;5037044;28;20193;-78
2020/12/24 05:03:04;;;;;;;19.47;18.37;;;9.70;83.40;;;;;;5032319;28;20217;-79
2020/12/24 05:05:31;;;;;;;19.23;18.27;;;9.70;82.90;;;;;;5034738;28;20468;-78
2020/12/24 05:07:58;;;;;;;18.50;17.60;;;9.70;82.90;;;;;;5052429;28;20197;-78
2020/12/24 05:10:24;;;;;;;18.20;17.40;;;9.70;82.70;;;;;;5056142;28;20205;-78
2020/12/24 05:12:51;;;;;;;20.58;19.45;;;9.60;83.00;;;;;;5056332;28;20200;-79
2020/12/24 05:15:26;;;;;;;18.65;17.75;;;9.70;82.60;;;;;;5045872;28;20280;-79
2020/12/24 05:17:53;;;;;;;17.63;16.53;;;9.50;82.70;;;;;;5036054;28;20258;-78
2020/12/24 05:20:19;;;;;;;18.38;17.38;;;9.50;82.90;;;;;;5036197;28;20743;-78
2020/12/24 05:22:46;;;;;;;18.20;17.27;;;9.40;82.90;;;;;;5036197;28;20205;-78
2020/12/24 05:25:19;;;;;;;18.65;17.75;;;9.30;83.20;;;;;;5045230;28;20185;-78
2020/12/24 05:27:55;;;;;;;18.50;17.60;;;9.10;83.60;;;;;;5055909;28;20250;-78
2020/12/24 05:30:27;;;;;;;17.90;17.00;;;9.10;83.90;;;;;;5055891;28;20288;-78
2020/12/24 05:32:53;;;;;;;18.23;17.40;;;9.10;83.90;;;;;;5051747;28;20215;-78
2020/12/24 05:35:23;;;;;;;17.70;16.90;;;9.00;84.10;;;;;;5035907;28;20208;-78
2020/12/24 05:37:50;;;;;;;18.92;18.02;;;8.90;84.50;;;;;;5035623;28;20732;-78
2020/12/24 05:40:20;;;;;;;18.45;17.55;;;8.80;84.70;;;;;;5035592;28;20217;-78
2020/12/24 05:42:51;;;;;;;18.40;17.40;;;8.80;84.60;;;;;;5035651;28;20208;-78
2020/12/24 05:45:18;;;;;;;18.02;17.13;;;8.80;84.60;;;;;;5035136;28;20186;-78
2020/12/24 05:47:46;;;;;;;17.63;16.83;;;8.70;84.70;;;;;;5035188;28;20251;-78
2020/12/24 05:50:22;;;;;;;18.52;17.42;;;8.80;84.40;;;;;;5035654;28;20209;-78
2020/12/24 05:53:04;;;;;;;17.50;16.70;;;8.80;84.30;;;;;;5037844;28;20190;-78
2020/12/24 05:55:30;;;;;;;17.55;16.75;;;8.70;84.80;;;;;;5055300;28;20227;-78
2020/12/24 05:57:59;;;;;;;17.38;16.48;;;8.70;84.70;;;;;;5055383;28;20282;-78
2020/12/24 06:00:32;;;;;;;17.05;16.15;;;8.70;84.80;;;;;;5055287;28;20549;-78
2020/12/24 06:03:10;;;;;;;17.90;16.95;;;8.60;85.00;;;;;;5051372;28;20193;-78
2020/12/24 06:05:56;;;;;;;17.85;17.00;;;8.60;84.60;;;;;;5035153;28;20217;-78
2020/12/24 06:08:24;;;;;;;17.52;16.73;;;8.60;84.90;;;;;;5035493;28;20567;-78
2020/12/24 06:11:04;;;;;;;17.98;17.02;;;8.50;84.90;;;;;;5034953;28;20201;-78
2020/12/24 06:13:39;;;;;;;17.30;16.40;;;8.50;85.00;;;;;;5035457;28;20192;-78
2020/12/24 06:16:07;;;;;;;18.92;17.98;;;8.50;84.70;;;;;;5034665;28;20679;-78
2020/12/24 06:18:37;;;;;;;16.65;15.85;;;8.50;84.80;;;;;;5042385;28;20216;-78
2020/12/24 06:21:09;;;;;;;16.20;15.20;;;8.50;85.10;;;;;;5060387;28;20275;-78
2020/12/24 06:23:38;;;;;;;18.02;17.08;;;8.60;85.00;;;;;;5055287;28;20197;-78
2020/12/24 06:26:08;;;;;;;16.38;15.63;;;8.60;84.90;;;;;;5054738;28;20217;-78
2020/12/24 06:28:36;;;;;;;18.13;17.23;;;8.60;85.10;;;;;;5049483;28;20190;-78
2020/12/24 06:31:03;;;;;;;18.92;18.02;;;8.60;85.10;;;;;;5035063;28;20201;-78
2020/12/24 06:33:31;;;;;;;17.50;16.70;;;8.60;84.70;;;;;;5054870;28;20196;-78
2020/12/24 06:35:58;;;;;;;17.60;16.70;;;8.60;84.80;;;;;;5054745;28;20216;-78
2020/12/24 06:38:45;;;;;;;16.85;15.95;;;8.70;84.60;;;;;;5054524;28;20220;-78
2020/12/24 06:41:27;;;;;;;17.27;16.42;;;8.70;84.60;;;;;;5053022;28;20196;-78
2020/12/24 06:43:54;;;;;;;18.20;17.20;;;8.70;84.50;;;;;;5034689;28;20194;-78
2020/12/24 06:46:20;;;;;;;18.45;17.45;;;8.60;84.60;;;;;;5034705;28;20601;-78
2020/12/24 06:49:01;;;;;;;18.55;17.48;;;8.80;84.00;;;;;;5034677;28;20197;-78
2020/12/24 06:51:46;;;;;;;17.95;17.05;;;8.80;83.80;;;;;;5046534;28;20200;-78
2020/12/24 06:54:19;;;;;;;17.42;16.52;;;8.70;83.80;;;;;;5035278;28;20653;-78
2020/12/24 06:56:45;;;;;;;16.35;15.32;;;8.70;83.70;;;;;;5040324;28;20221;-78
2020/12/24 06:59:19;;;;;;;18.13;17.15;;;8.80;83.20;;;;;;5037823;28;20217;-78
2020/12/24 07:02:01;;;;;;;18.73;17.05;;;8.90;83.00;;;;;;5051373;28;20204;-78
2020/12/24 07:04:40;;;;;;;18.48;17.52;;;8.80;83.50;;;;;;5054163;28;20192;-78
2020/12/24 07:07:08;;;;;;;18.67;17.77;;;8.80;83.30;;;;;;5053936;28;20693;-78
2020/12/24 07:09:42;;;;;;;18.50;17.50;;;8.80;83.50;;;;;;5053995;28;20658;-78
2020/12/24 07:12:08;;;;;;;19.73;18.55;;;8.80;83.20;;;;;;5014497;28;20220;-78
2020/12/24 07:14:37;;;;;;;18.50;17.35;;;8.90;82.70;;;;;;5014439;28;20208;-78
2020/12/24 07:17:11;;;;;;;18.60;17.52;;;8.90;82.70;;;;;;5014064;28;20317;-78
2020/12/24 07:19:41;;;;;;;17.83;16.90;;;8.90;82.40;;;;;;5014293;28;20223;-78
2020/12/24 07:22:11;;;;;;;19.05;17.67;;;9.00;82.10;;;;;;5053383;28;20204;-78
2020/12/24 07:24:38;;;;;;;19.52;18.35;;;9.00;81.70;;;;;;5053762;28;20193;-78
2020/12/24 07:27:06;;;;;;;18.85;17.85;;;9.00;81.60;;;;;;5045715;28;20211;-78
2020/12/24 07:29:34;;;;;;;19.10;18.00;;;9.00;81.20;;;;;;5034043;28;20190;-78
2020/12/24 07:32:03;;;;;;;19.42;18.40;;;9.00;81.00;;;;;;5033854;28;20193;-78
2020/12/24 07:34:31;;;;;;;19.52;18.40;;;9.10;80.60;;;;;;5036833;28;20195;-78
2020/12/24 07:36:58;;;;;;;21.10;19.70;;;9.10;80.30;;;;;;5049722;28;20217;-78
2020/12/24 07:39:25;;;;;;;19.02;18.02;;;9.10;79.90;;;;;;5053323;28;20301;-78
2020/12/24 07:41:52;;;;;;;20.25;18.90;;;9.10;79.80;;;;;;5053663;28;20199;-78
2020/12/24 07:44:20;;;;;;;19.95;18.65;;;9.20;79.60;;;;;;5047105;28;20193;-78
2020/12/24 07:46:47;;;;;;;19.95;18.67;;;9.20;79.50;;;;;;5033348;28;20222;-78
2020/12/24 07:49:14;;;;;;;21.63;19.85;;;9.30;78.60;;;;;;5033698;28;20336;-78
2020/12/24 07:51:41;;;;;;;21.48;20.30;;;9.30;78.30;;;;;;5042621;28;20274;-78
2020/12/24 07:54:08;;;;;;;20.90;19.50;;;9.30;78.00;;;;;;5052740;28;20193;-78
2020/12/24 07:56:36;;;;;;;22.35;20.90;;;9.40;77.20;;;;;;5053058;28;20246;-78
2020/12/24 07:59:04;;;;;;;19.67;18.67;;;9.40;77.30;;;;;;5055501;28;20213;-78
2020/12/24 08:01:30;;;;;;;20.02;18.83;;;9.40;76.70;;;;;;5054158;28;20193;-78
2020/12/24 08:03:58;;;;;;;21.42;20.17;;;9.40;76.50;;;;;;5041631;28;20204;-78
2020/12/24 08:06:25;;;;;;;22.30;20.83;;;9.40;76.70;;;;;;5057610;28;20224;-78
2020/12/24 08:08:52;;;;;;;21.33;19.92;;;9.50;76.10;;;;;;5052926;28;20208;-78
2020/12/24 08:11:18;;;;;;;22.65;21.10;;;9.60;75.60;;;;;;5046986;28;20559;-78
2020/12/24 08:13:45;;;;;;;21.55;20.10;;;9.60;75.30;;;;;;5034239;28;20208;-78
2020/12/24 08:16:12;;;;;;;21.90;20.50;;;9.60;75.30;;;;;;5040980;28;20304;-78
2020/12/24 08:18:46;;;;;;;22.23;20.23;;;9.70;75.20;;;;;;5033264;28;20763;-78
2020/12/24 08:21:22;;;;;;;23.70;21.90;;;9.70;74.70;;;;;;5037646;28;20188;-78
2020/12/24 08:23:51;;;;;;;20.88;19.40;;;9.70;74.50;;;;;;5053127;28;20250;-78
2020/12/24 08:26:19;;;;;;;21.33;20.02;;;9.70;73.90;;;;;;5052988;28;20227;-78
2020/12/24 08:28:55;;;;;;;21.67;19.92;;;9.80;73.90;;;;;;5053147;28;20616;-78
2020/12/24 08:31:23;;;;;;;21.42;19.98;;;9.70;73.90;;;;;;5050688;28;20238;-78
2020/12/24 08:33:52;;;;;;;20.85;19.65;;;9.60;74.20;;;;;;5037203;28;20201;-78
2020/12/24 08:36:19;;;;;;;22.20;20.75;;;9.50;74.30;;;;;;5038640;28;20213;-78
2020/12/24 08:38:46;;;;;;;21.33;20.15;;;9.60;74.50;;;;;;5050406;28;20220;-78
2020/12/24 08:41:22;;;;;;;21.52;20.05;;;9.50;74.50;;;;;;5057074;28;20264;-78
2020/12/24 08:43:53;;;;;;;20.98;19.88;;;9.50;74.60;;;;;;5054925;28;20692;-78
2020/12/24 08:46:19;;;;;;;21.30;20.08;;;9.50;74.70;;;;;;5054529;28;20247;-78
2020/12/24 08:48:46;;;;;;;20.90;19.65;;;9.60;74.70;;;;;;5037247;28;20194;-78
2020/12/24 08:51:13;;;;;;;21.30;20.10;;;9.60;74.70;;;;;;5036769;28;20198;-78
2020/12/24 08:53:39;;;;;;;20.65;19.30;;;9.50;74.80;;;;;;5043307;28;20725;-79
2020/12/24 08:56:12;;;;;;;21.25;20.05;;;9.60;74.70;;;;;;5051965;28;20209;-78
2020/12/24 08:58:47;;;;;;;21.02;19.95;;;9.60;75.00;;;;;;5039774;28;20218;-78
2020/12/24 09:01:14;;;;;;;22.53;21.13;;;9.50;75.00;;;;;;5039626;28;20639;-78
2020/12/24 09:03:41;;;;;;;20.60;19.50;;;9.50;75.00;;;;;;5037304;28;20456;-78
2020/12/24 09:06:10;;;;;;;19.63;18.58;;;9.60;75.40;;;;;;5036456;28;20221;-78
2020/12/24 09:08:36;;;;;;;20.40;19.35;;;9.60;75.10;;;;;;5038626;28;20252;-78
2020/12/24 09:11:03;;;;;;;20.60;19.60;;;9.70;75.30;;;;;;5039665;28;20197;-78
2020/12/24 09:13:29;;;;;;;20.50;19.40;;;9.70;74.90;;;;;;5041861;28;20196;-78
2020/12/24 09:15:55;;;;;;;21.17;19.88;;;9.70;75.10;;;;;;5052862;28;20251;-78
2020/12/24 09:18:23;;;;;;;22.00;20.70;;;9.70;75.10;;;;;;5036199;28;20240;-78
2020/12/24 09:20:49;;;;;;;22.15;20.75;;;9.70;74.90;;;;;;5032677;28;20241;-79
2020/12/24 09:23:16;;;;;;;19.88;18.98;;;9.70;75.20;;;;;;5037844;28;20681;-79
2020/12/24 09:25:44;;;;;;;20.48;19.35;;;9.70;75.20;;;;;;5051800;28;20213;-79
2020/12/24 09:28:21;;;;;;;21.95;20.75;;;9.70;74.70;;;;;;5050770;28;20189;-79
2020/12/24 09:30:47;;;;;;;20.50;19.45;;;9.60;75.00;;;;;;5012700;28;20667;-79
2020/12/24 09:33:14;;;;;;;21.55;20.25;;;9.70;74.60;;;;;;5028697;28;20285;-79
2020/12/24 09:35:42;;;;;;;21.60;20.50;;;9.70;74.60;;;;;;5032137;28;20217;-79
2020/12/24 09:38:08;;;;;;;21.58;20.27;;;9.70;74.50;;;;;;5032254;28;20197;-79
2020/12/24 09:40:35;;;;;;;20.30;19.30;;;9.70;74.70;;;;;;5032579;28;20202;-79
2020/12/24 09:43:02;;;;;;;20.98;19.88;;;9.70;74.90;;;;;;5050247;28;20193;-79
2020/12/24 09:45:28;;;;;;;21.15;19.95;;;9.70;74.80;;;;;;5051631;28;20270;-79
2020/12/24 09:47:55;;;;;;;20.50;19.40;;;9.80;74.60;;;;;;5052441;28;20563;-79
2020/12/24 09:50:22;;;;;;;21.02;19.63;;;9.90;74.50;;;;;;5052231;28;20231;-79
2020/12/24 09:52:49;;;;;;;22.17;20.90;;;9.90;73.80;;;;;;5035345;28;20528;-79
2020/12/24 09:55:15;;;;;;;22.25;20.95;;;9.90;73.70;;;;;;5034143;28;20193;-79
2020/12/24 09:57:42;;;;;;;21.67;20.58;;;9.90;73.70;;;;;;5035691;28;20197;-79
2020/12/24 10:00:11;;;;;;;20.87;19.67;;;10.00;73.80;;;;;;5037736;28;20218;-79
2020/12/24 10:02:38;;;;;;;22.35;21.15;;;10.00;73.30;;;;;;5055714;28;20537;-78
2020/12/24 10:05:06;;;;;;;20.80;19.40;;;10.10;73.10;;;;;;5056116;28;20203;-79
2020/12/24 10:07:32;;;;;;;21.17;19.87;;;10.10;73.10;;;;;;5060451;28;20959;-79
2020/12/24 10:10:00;;;;;;;22.33;21.17;;;10.10;72.80;;;;;;5052336;28;20452;-79
2020/12/24 10:12:28;;;;;;;22.00;20.50;;;10.20;72.80;;;;;;5039576;28;20539;-79
2020/12/24 10:14:55;;;;;;;21.70;20.60;;;10.30;72.30;;;;;;5038250;28;20197;-79
2020/12/24 10:17:22;;;;;;;21.50;20.27;;;10.30;72.30;;;;;;5035276;28;20997;-79
2020/12/24 10:19:48;;;;;;;21.10;20.00;;;10.40;72.30;;;;;;5036421;28;20476;-79
2020/12/24 10:22:15;;;;;;;21.40;20.30;;;10.50;72.00;;;;;;5035431;28;20551;-79
2020/12/24 10:24:43;;;;;;;21.40;20.30;;;10.50;71.80;;;;;;5045272;28;20517;-79
2020/12/24 10:27:11;;;;;;;22.10;20.70;;;10.60;71.70;;;;;;5035112;28;20988;-79
2020/12/24 10:29:37;;;;;;;21.93;20.70;;;10.60;71.80;;;;;;5035082;28;20445;-79
2020/12/24 10:32:04;;;;;;;20.80;19.70;;;10.70;71.70;;;;;;5035007;28;20444;-79
2020/12/24 10:34:30;;;;;;;21.03;19.83;;;10.80;71.60;;;;;;5046633;28;20493;-77
2020/12/24 10:36:57;;;;;;;21.20;20.13;;;10.90;71.20;;;;;;5054164;28;20829;-77
2020/12/24 10:39:23;;;;;;;21.63;20.53;;;10.90;71.10;;;;;;5053830;28;20489;-77
2020/12/24 10:41:50;;;;;;;21.40;20.20;;;11.00;70.90;;;;;;5046560;28;20535;-77
2020/12/24 10:44:18;;;;;;;22.30;21.10;;;10.90;70.70;;;;;;5040206;28;20446;-77
2020/12/24 10:46:45;;;;;;;22.50;21.13;;;11.00;70.60;;;;;;5034310;28;20474;-77
2020/12/24 10:49:11;;;;;;;22.53;21.33;;;10.90;71.10;;;;;;5034424;28;20450;-77
2020/12/24 10:51:37;;;;;;;23.30;22.20;;;10.90;70.70;;;;;;5034376;28;20459;-77
2020/12/24 10:54:04;;;;;;;21.83;20.73;;;10.90;71.20;;;;;;5034712;28;20460;-77
2020/12/24 10:56:31;;;;;;;21.60;20.50;;;10.80;71.20;;;;;;5053794;28;20468;-77
2020/12/24 10:58:57;;;;;;;21.07;20.07;;;10.80;71.70;;;;;;5051592;28;20488;-77
2020/12/24 11:01:24;;;;;;;21.23;20.13;;;10.80;70.80;;;;;;5033958;28;20953;-76
2020/12/24 11:03:51;;;;;;;21.67;20.57;;;10.70;71.00;;;;;;5034202;28;20945;-76
2020/12/24 11:06:20;;;;;;;22.33;20.93;;;10.70;71.70;;;;;;5033463;28;20468;-77
2020/12/24 11:08:46;;;;;;;22.00;20.80;;;10.60;71.60;;;;;;5033873;28;20818;-77
2020/12/24 11:11:13;;;;;;;21.30;20.20;;;10.50;71.80;;;;;;5014287;28;20528;-77
2020/12/24 11:13:41;;;;;;;21.37;20.33;;;10.50;71.70;;;;;;5014286;28;20464;-77
2020/12/24 11:16:07;;;;;;;21.50;20.40;;;10.60;71.60;;;;;;5048735;28;21004;-77
2020/12/24 11:18:36;;;;;;;20.77;19.57;;;10.50;71.90;;;;;;5053722;28;20871;-77
2020/12/24 11:21:03;;;;;;;22.70;21.30;;;10.50;72.00;;;;;;5035375;28;20494;-76
2020/12/24 11:23:30;;;;;;;21.17;20.07;;;10.50;72.30;;;;;;5033905;28;20526;-76
2020/12/24 11:25:56;;;;;;;21.27;20.17;;;10.50;71.70;;;;;;5033537;28;20469;-76
2020/12/24 11:28:22;;;;;;;20.80;19.80;;;10.40;72.20;;;;;;5033881;28;20458;-78
2020/12/24 11:30:49;;;;;;;21.20;20.10;;;10.30;72.10;;;;;;5050109;28;20199;-78
2020/12/24 11:33:15;;;;;;;21.57;20.47;;;10.20;72.60;;;;;;5053975;28;20496;-78
2020/12/24 11:35:42;;;;;;;21.80;20.50;;;10.20;72.80;;;;;;5040616;28;20479;-78
2020/12/24 11:38:09;;;;;;;21.65;20.45;;;10.30;72.50;;;;;;5033812;28;20539;-78
2020/12/24 11:40:35;;;;;;;22.00;20.65;;;10.30;72.30;;;;;;5037358;28;20213;-76
2020/12/24 11:43:01;;;;;;;22.60;21.50;;;10.30;72.50;;;;;;5053187;28;20201;-76
2020/12/24 11:45:28;;;;;;;21.07;20.07;;;10.30;72.30;;;;;;5052623;28;21102;-76
2020/12/24 11:47:54;;;;;;;21.70;20.40;;;10.40;71.70;;;;;;5046632;28;20452;-77
2020/12/24 11:50:20;;;;;;;21.50;20.50;;;10.40;71.80;;;;;;5041908;28;20496;-76
2020/12/24 11:52:47;;;;;;;21.77;20.30;;;10.50;71.80;;;;;;5053229;28;20511;-76
2020/12/24 11:55:14;;;;;;;21.30;20.30;;;10.50;71.70;;;;;;5053082;28;20969;-76
2020/12/24 11:57:40;;;;;;;21.10;20.00;;;10.50;71.80;;;;;;5049137;28;20454;-77
2020/12/24 12:00:09;;;;;;;22.20;21.10;;;10.50;71.80;;;;;;5032991;28;20483;-76
2020/12/24 12:02:35;;;;;;;22.50;21.40;;;10.50;71.60;;;;;;5033281;28;20483;-76
2020/12/24 12:05:02;;;;;;;22.20;21.10;;;10.50;71.80;;;;;;5035049;28;20452;-76
2020/12/24 12:07:28;;;;;;;21.80;20.60;;;10.50;71.70;;;;;;5052844;28;20472;-76
2020/12/24 12:09:55;;;;;;;22.33;20.92;;;10.50;71.50;;;;;;5052855;28;20211;-76
2020/12/24 12:12:22;;;;;;;21.25;20.20;;;10.50;72.00;;;;;;5052797;28;20605;-76
2020/12/24 12:14:48;;;;;;;21.50;20.40;;;10.50;71.70;;;;;;5052312;28;20200;-77
2020/12/24 12:17:16;;;;;;;21.80;20.60;;;10.50;72.00;;;;;;5052422;28;20217;-76
2020/12/24 12:19:44;;;;;;;20.40;19.40;;;10.50;72.00;;;;;;5051937;28;20220;-76
2020/12/24 12:22:10;;;;;;;21.37;20.33;;;10.50;71.70;;;;;;5052758;28;20455;-76
2020/12/24 12:24:37;;;;;;;21.57;20.47;;;10.50;71.70;;;;;;5037905;28;20964;-76
2020/12/24 12:27:04;;;;;;;20.50;19.50;;;10.60;71.60;;;;;;5032257;28;20807;-77
2020/12/24 12:29:30;;;;;;;23.23;22.17;;;10.50;71.50;;;;;;5032473;28;20535;-76
2020/12/24 12:31:57;;;;;;;22.07;20.97;;;10.50;71.90;;;;;;5032825;28;20795;-76
2020/12/24 12:34:24;;;;;;;21.07;20.07;;;10.50;71.80;;;;;;5032733;28;21101;-76